Time;durP1;ratioP1;P1;durP2;ratioP2;P2;SDS_P1;SDS_P2;PMS_P1;PMS_P2;Temp;Humidity;BMP_temperature;BMP_pressure;BME280_temperature;BME280_humidity;BME280_pressure;Samples;Min_cycle;Max_cycle;Signal;HPM_P1;HPM_P2
2021/08/31 00:01:57;;;;;;;4.25;3.22;;;17.70;98.00;;;;;;5014411;28;20058;-74
2021/08/31 00:04:25;;;;;;;3.35;3.08;;;17.70;96.60;;;;;;5014120;28;20104;-73
2021/08/31 00:06:52;;;;;;;3.30;3.10;;;17.80;96.00;;;;;;5015614;28;20104;-73
2021/08/31 00:09:21;;;;;;;3.00;2.80;;;18.00;96.00;;;;;;5014340;28;20032;-72
2021/08/31 00:11:48;;;;;;;3.20;2.88;;;18.10;95.90;;;;;;5014377;28;20414;-73
2021/08/31 00:14:16;;;;;;;2.67;2.47;;;18.30;95.60;;;;;;5015795;28;20422;-73
2021/08/31 00:16:43;;;;;;;3.30;2.78;;;18.40;95.30;;;;;;5014121;28;20112;-74
2021/08/31 00:19:12;;;;;;;2.60;2.40;;;18.50;94.80;;;;;;5015477;28;20046;-72
2021/08/31 00:21:40;;;;;;;2.42;2.22;;;18.60;93.60;;;;;;5014027;28;20034;-72
2021/08/31 00:24:08;;;;;;;2.20;2.10;;;18.80;93.60;;;;;;5014007;28;20129;-72
2021/08/31 00:26:35;;;;;;;2.33;2.10;;;18.80;92.90;;;;;;5015299;28;20018;-72
2021/08/31 00:29:03;;;;;;;2.03;1.90;;;18.90;89.90;;;;;;5013896;28;20028;-73
2021/08/31 00:31:30;;;;;;;2.50;2.28;;;18.90;89.50;;;;;;5015071;28;20060;-72
2021/08/31 00:33:57;;;;;;;2.50;2.00;;;18.80;87.50;;;;;;5014032;28;20033;-72
2021/08/31 00:36:25;;;;;;;2.70;2.50;;;18.90;89.40;;;;;;5014985;28;20108;-73
2021/08/31 00:38:56;;;;;;;3.22;2.33;;;19.00;87.00;;;;;;5013744;28;20068;-74
2021/08/31 00:41:24;;;;;;;6.03;2.88;;;19.00;87.00;;;;;;5015139;28;20029;-73
2021/08/31 00:43:52;;;;;;;2.80;2.60;;;19.00;88.40;;;;;;5013566;28;20026;-73
2021/08/31 00:46:22;;;;;;;2.72;2.30;;;19.10;87.20;;;;;;5013488;28;20026;-72
2021/08/31 00:48:53;;;;;;;2.60;2.40;;;19.10;86.60;;;;;;5013611;28;20121;-73
2021/08/31 00:51:23;;;;;;;2.78;2.58;;;19.10;90.20;;;;;;5013536;28;20058;-73
2021/08/31 00:53:52;;;;;;;2.55;2.35;;;19.40;89.60;;;;;;5014747;28;20024;-73
2021/08/31 00:56:21;;;;;;;2.67;2.47;;;19.50;86.70;;;;;;4997257;28;20481;-73
2021/08/31 00:58:48;;;;;;;3.53;2.90;;;19.70;87.10;;;;;;5013528;28;20025;-73
2021/08/31 01:01:16;;;;;;;2.67;2.33;;;19.80;87.80;;;;;;5014457;28;20029;-74
2021/08/31 01:03:44;;;;;;;2.78;2.67;;;19.90;85.30;;;;;;5013224;28;20044;-73
2021/08/31 01:06:12;;;;;;;3.00;2.50;;;19.90;84.30;;;;;;5014438;28;20049;-73
2021/08/31 01:08:40;;;;;;;2.53;2.40;;;20.00;83.80;;;;;;5013259;28;20109;-73
2021/08/31 01:11:08;;;;;;;2.50;2.40;;;20.10;82.60;;;;;;5013138;28;20574;-73
2021/08/31 01:13:37;;;;;;;2.50;2.30;;;20.10;84.20;;;;;;5013150;28;20032;-73
2021/08/31 01:16:05;;;;;;;2.35;2.25;;;20.20;82.80;;;;;;5013428;28;20076;-73
2021/08/31 01:18:34;;;;;;;2.78;2.58;;;20.20;82.90;;;;;;5013140;28;20037;-73
2021/08/31 01:21:02;;;;;;;2.40;2.20;;;20.30;82.00;;;;;;5012924;28;20030;-73
2021/08/31 01:23:30;;;;;;;2.58;2.38;;;20.30;80.70;;;;;;5014254;28;20029;-73
2021/08/31 01:26:01;;;;;;;2.40;2.20;;;20.40;80.10;;;;;;5014237;28;20105;-73
2021/08/31 01:28:32;;;;;;;6.25;3.67;;;20.30;81.20;;;;;;5012887;28;20030;-73
2021/08/31 01:31:00;;;;;;;6.28;3.60;;;20.40;82.90;;;;;;5014134;28;20088;-73
2021/08/31 01:33:30;;;;;;;2.55;2.35;;;20.60;80.40;;;;;;5013159;28;20466;-73
2021/08/31 01:35:59;;;;;;;2.40;2.20;;;20.60;79.00;;;;;;5012782;28;20037;-73
2021/08/31 01:38:26;;;;;;;4.10;3.60;;;20.60;81.30;;;;;;5014030;28;20030;-73
2021/08/31 01:40:53;;;;;;;3.67;3.00;;;20.80;81.00;;;;;;5013954;28;20449;-72
2021/08/31 01:43:27;;;;;;;2.70;2.50;;;20.70;80.50;;;;;;5012230;28;20026;-74
2021/08/31 01:45:55;;;;;;;2.75;2.55;;;20.80;80.10;;;;;;5013157;28;20054;-74
2021/08/31 01:48:23;;;;;;;2.80;2.60;;;21.00;81.10;;;;;;5013802;28;20018;-74
2021/08/31 01:50:50;;;;;;;4.05;2.90;;;21.10;80.70;;;;;;5011651;28;20513;-74
2021/08/31 01:53:17;;;;;;;2.60;2.40;;;21.00;82.60;;;;;;5013701;28;20029;-73
2021/08/31 01:55:45;;;;;;;3.08;2.78;;;21.00;78.70;;;;;;5012506;28;20040;-73
2021/08/31 01:58:12;;;;;;;3.78;3.45;;;21.10;81.40;;;;;;5013699;28;20386;-72
2021/08/31 02:00:39;;;;;;;2.60;2.47;;;21.10;81.60;;;;;;5013556;28;20034;-72
2021/08/31 02:03:07;;;;;;;3.10;2.40;;;21.00;78.20;;;;;;5012303;28;20041;-72
2021/08/31 02:05:34;;;;;;;2.65;2.45;;;21.00;76.20;;;;;;5011957;28;20049;-72
2021/08/31 02:08:02;;;;;;;2.95;2.72;;;21.00;77.60;;;;;;5012285;28;20367;-72
2021/08/31 02:10:29;;;;;;;2.40;2.20;;;21.20;78.60;;;;;;5012247;28;20079;-73
2021/08/31 02:12:57;;;;;;;4.57;3.00;;;21.30;78.10;;;;;;5012224;28;20418;-73
2021/08/31 02:15:24;;;;;;;2.97;2.55;;;21.40;77.10;;;;;;5013411;28;20029;-73
2021/08/31 02:17:51;;;;;;;2.88;2.60;;;21.30;75.50;;;;;;5013598;28;20029;-72
2021/08/31 02:20:19;;;;;;;2.72;2.53;;;21.50;76.10;;;;;;5013384;28;20026;-73
2021/08/31 02:22:46;;;;;;;2.80;2.60;;;21.60;76.70;;;;;;5013258;28;20132;-72
2021/08/31 02:25:14;;;;;;;2.75;2.55;;;21.50;75.10;;;;;;5012011;28;20044;-72
2021/08/31 02:27:41;;;;;;;2.60;2.40;;;21.70;76.40;;;;;;5012087;28;20028;-72
2021/08/31 02:30:09;;;;;;;2.75;2.55;;;21.70;74.90;;;;;;5011834;28;20022;-72
2021/08/31 02:32:36;;;;;;;2.20;2.10;;;21.60;73.40;;;;;;5011877;28;20062;-72
2021/08/31 02:35:04;;;;;;;2.60;2.50;;;21.70;74.10;;;;;;5013175;28;20391;-73
2021/08/31 02:37:31;;;;;;;2.33;2.22;;;21.70;73.90;;;;;;5013138;28;20021;-73
2021/08/31 02:39:59;;;;;;;2.40;2.30;;;21.80;75.00;;;;;;5013129;28;20084;-72
2021/08/31 02:42:26;;;;;;;2.50;2.40;;;21.90;75.60;;;;;;5011660;28;20122;-73
2021/08/31 02:44:53;;;;;;;2.70;2.50;;;22.00;75.00;;;;;;5012178;28;20497;-73
2021/08/31 02:47:21;;;;;;;3.05;2.30;;;22.10;75.70;;;;;;5011824;28;20022;-73
2021/08/31 02:49:48;;;;;;;2.70;2.50;;;22.40;77.00;;;;;;5011766;28;20406;-73
2021/08/31 02:52:16;;;;;;;2.70;2.38;;;22.50;76.30;;;;;;5013172;28;20061;-73
2021/08/31 02:54:43;;;;;;;3.88;2.45;;;22.50;76.30;;;;;;5012995;28;20025;-73
2021/08/31 02:57:10;;;;;;;2.00;1.80;;;22.50;77.50;;;;;;5016807;28;20025;-73
2021/08/31 02:59:38;;;;;;;3.90;2.10;;;22.60;79.70;;;;;;5015734;28;20148;-72
2021/08/31 03:02:06;;;;;;;3.30;2.30;;;22.80;79.60;;;;;;5016656;28;20025;-72
2021/08/31 03:04:36;;;;;;;2.28;2.08;;;22.70;78.50;;;;;;5015189;28;20132;-73
2021/08/31 03:07:08;;;;;;;3.58;2.35;;;22.60;78.80;;;;;;5015531;28;20026;-73
2021/08/31 03:09:37;;;;;;;2.53;2.28;;;22.50;79.30;;;;;;5015521;28;20030;-73
2021/08/31 03:12:05;;;;;;;2.30;2.00;;;22.60;80.40;;;;;;5015485;28;20033;-74
2021/08/31 03:14:32;;;;;;;2.45;2.08;;;22.40;81.40;;;;;;5015381;28;20037;-74
2021/08/31 03:17:00;;;;;;;2.70;2.30;;;22.50;80.50;;;;;;5016655;28;20056;-74
2021/08/31 03:19:27;;;;;;;2.17;1.80;;;22.50;80.50;;;;;;5016526;28;20029;-73
2021/08/31 03:21:57;;;;;;;1.80;1.70;;;22.20;79.50;;;;;;5016448;28;20029;-72
2021/08/31 03:24:26;;;;;;;2.53;2.25;;;22.10;81.50;;;;;;5016478;28;20436;-73
2021/08/31 03:26:54;;;;;;;2.28;2.10;;;22.00;80.00;;;;;;5014934;28;20030;-72
2021/08/31 03:29:21;;;;;;;3.85;2.20;;;21.90;79.70;;;;;;5016388;28;20045;-73
2021/08/31 03:31:51;;;;;;;;;;;22.10;80.60;;;;;;5016865;28;20032;-73
2021/08/31 03:34:18;;;;;;;2.85;2.10;;;22.00;80.20;;;;;;5014944;28;19944;-74
2021/08/31 03:36:46;;;;;;;2.53;2.00;;;22.20;80.10;;;;;;5015000;28;20398;-73
2021/08/31 03:39:13;;;;;;;4.03;2.28;;;22.20;79.10;;;;;;5016247;28;20501;-73
2021/08/31 03:41:41;;;;;;;3.33;2.25;;;22.10;80.80;;;;;;5016096;28;20340;-73
2021/08/31 03:44:09;;;;;;;2.58;2.17;;;22.30;80.90;;;;;;5016119;28;20022;-73
2021/08/31 03:46:37;;;;;;;2.17;2.00;;;22.40;80.20;;;;;;5016000;28;20042;-73
2021/08/31 03:49:04;;;;;;;2.28;2.08;;;22.20;78.30;;;;;;5014796;28;20026;-73
2021/08/31 03:51:31;;;;;;;2.47;2.20;;;22.40;80.40;;;;;;5015902;28;20029;-72
2021/08/31 03:53:59;;;;;;;2.17;2.08;;;22.50;78.10;;;;;;5015906;28;20021;-73
2021/08/31 03:56:26;;;;;;;2.00;1.80;;;22.30;78.90;;;;;;5014617;28;20030;-74
2021/08/31 03:58:53;;;;;;;2.70;2.13;;;22.40;79.50;;;;;;5014519;28;20033;-73
2021/08/31 04:01:21;;;;;;;2.00;1.90;;;22.20;79.90;;;;;;5014623;28;20413;-73
2021/08/31 04:03:49;;;;;;;2.05;1.90;;;22.20;80.00;;;;;;5015732;28;20041;-73
2021/08/31 04:06:17;;;;;;;1.88;1.70;;;22.20;79.90;;;;;;5015339;28;20046;-73
2021/08/31 04:08:44;;;;;;;1.95;1.85;;;22.20;80.10;;;;;;5014908;28;20021;-73
2021/08/31 04:11:12;;;;;;;2.55;2.20;;;22.40;81.20;;;;;;5014499;28;20410;-73
2021/08/31 04:13:39;;;;;;;2.60;2.40;;;22.20;80.10;;;;;;5015516;28;20110;-72
2021/08/31 04:16:06;;;;;;;2.30;2.10;;;22.30;81.10;;;;;;5015447;28;20054;-72
2021/08/31 04:18:35;;;;;;;2.40;2.20;;;22.20;82.70;;;;;;5015307;28;20030;-72
2021/08/31 04:21:02;;;;;;;3.28;2.40;;;22.10;84.00;;;;;;5015508;28;20424;-72
2021/08/31 04:23:30;;;;;;;2.50;2.13;;;22.10;84.20;;;;;;5014113;28;20025;-73
2021/08/31 04:26:00;;;;;;;2.38;2.22;;;22.10;84.80;;;;;;5015265;28;20030;-73
2021/08/31 04:28:28;;;;;;;2.47;2.20;;;22.00;85.40;;;;;;5013968;28;20113;-72
2021/08/31 04:30:55;;;;;;;2.00;1.90;;;22.10;84.00;;;;;;5015162;28;20037;-73
2021/08/31 04:33:23;;;;;;;2.20;2.00;;;21.90;85.00;;;;;;5013836;28;20034;-73
2021/08/31 04:35:50;;;;;;;3.42;2.47;;;21.80;85.50;;;;;;5015343;28;20084;-73
2021/08/31 04:38:17;;;;;;;3.15;2.25;;;21.80;85.70;;;;;;5014022;28;20072;-72
2021/08/31 04:40:45;;;;;;;2.70;2.10;;;21.70;86.60;;;;;;5013641;28;20026;-72
2021/08/31 04:43:12;;;;;;;2.95;2.30;;;21.70;87.30;;;;;;5014922;28;20501;-73
2021/08/31 04:45:39;;;;;;;2.42;2.22;;;21.70;87.50;;;;;;5013632;28;20033;-73
2021/08/31 04:48:07;;;;;;;3.63;2.28;;;21.80;88.00;;;;;;5014714;28;20033;-73
2021/08/31 04:50:34;;;;;;;2.58;1.80;;;21.60;87.80;;;;;;5013564;28;20096;-73
2021/08/31 04:53:02;;;;;;;2.50;1.90;;;21.70;89.80;;;;;;5013489;28;20054;-73
2021/08/31 04:55:29;;;;;;;4.78;2.50;;;21.70;90.10;;;;;;5013397;28;20530;-73
2021/08/31 04:57:58;;;;;;;3.50;2.28;;;21.50;89.40;;;;;;5013381;28;20026;-73
2021/08/31 05:00:25;;;;;;;2.80;2.60;;;21.40;89.00;;;;;;5014643;28;20386;-73
2021/08/31 05:02:55;;;;;;;3.08;2.88;;;21.40;90.10;;;;;;5013297;28;20490;-72
2021/08/31 05:05:23;;;;;;;2.78;2.58;;;21.30;88.70;;;;;;5013123;28;20050;-73
2021/08/31 05:07:51;;;;;;;4.40;2.10;;;21.40;88.80;;;;;;5014749;28;20029;-73
2021/08/31 05:10:18;;;;;;;3.03;2.45;;;21.40;89.60;;;;;;5014522;28;20053;-73
2021/08/31 05:12:46;;;;;;;3.03;2.83;;;21.30;89.10;;;;;;5014509;28;20022;-72
2021/08/31 05:15:13;;;;;;;6.20;2.55;;;21.30;89.30;;;;;;5014404;28;20433;-72
2021/08/31 05:17:41;;;;;;;2.55;2.40;;;21.20;88.50;;;;;;5013077;28;20026;-72
2021/08/31 05:20:09;;;;;;;2.75;2.55;;;21.30;89.40;;;;;;5014193;28;20022;-73
2021/08/31 05:22:37;;;;;;;2.80;2.60;;;21.20;87.20;;;;;;5014149;28;20021;-73
2021/08/31 05:25:06;;;;;;;;;;;21.20;87.80;;;;;;5014566;28;20069;-73
2021/08/31 05:27:34;;;;;;;2.30;2.10;;;21.20;87.10;;;;;;5012841;28;20346;-73
2021/08/31 05:30:01;;;;;;;3.15;2.60;;;21.20;85.10;;;;;;5014048;28;20018;-73
2021/08/31 05:32:28;;;;;;;2.72;2.33;;;21.10;85.00;;;;;;5012645;28;20104;-73
2021/08/31 05:34:56;;;;;;;3.05;2.13;;;21.10;86.00;;;;;;5012699;28;20030;-73
2021/08/31 05:37:23;;;;;;;2.55;2.20;;;21.00;86.00;;;;;;5012587;28;20025;-73
2021/08/31 05:39:52;;;;;;;2.42;2.22;;;21.00;85.50;;;;;;5012636;28;20025;-73
2021/08/31 05:42:19;;;;;;;2.40;2.30;;;21.00;83.40;;;;;;5012416;28;20505;-72
2021/08/31 05:44:47;;;;;;;2.30;2.20;;;21.00;82.60;;;;;;5013608;28;20390;-73
2021/08/31 05:47:14;;;;;;;2.63;2.42;;;21.10;80.60;;;;;;5013639;28;20383;-73
2021/08/31 05:49:42;;;;;;;2.97;2.60;;;21.10;82.80;;;;;;5012346;28;20022;-72
2021/08/31 05:52:12;;;;;;;2.53;2.28;;;21.10;85.70;;;;;;5013652;28;20029;-72
2021/08/31 05:54:39;;;;;;;2.70;2.50;;;21.00;86.00;;;;;;5012296;28;20079;-72
2021/08/31 05:57:10;;;;;;;2.53;2.30;;;20.90;86.70;;;;;;5013496;28;20029;-72
2021/08/31 05:59:41;;;;;;;2.80;2.60;;;20.80;86.80;;;;;;5012062;28;20022;-73
2021/08/31 06:02:09;;;;;;;2.90;2.70;;;20.70;87.20;;;;;;4996225;28;20614;-73
2021/08/31 06:04:38;;;;;;;3.42;2.55;;;20.60;87.30;;;;;;5013209;28;20030;-72
2021/08/31 06:07:09;;;;;;;2.50;2.30;;;20.60;87.60;;;;;;5013404;28;20037;-72
2021/08/31 06:09:40;;;;;;;2.97;2.35;;;20.50;88.20;;;;;;5013309;28;20105;-72
2021/08/31 06:12:10;;;;;;;3.15;2.40;;;20.40;88.50;;;;;;5013266;28;20022;-72
2021/08/31 06:14:39;;;;;;;3.05;1.92;;;20.30;89.50;;;;;;5012048;28;20026;-73
2021/08/31 06:17:07;;;;;;;2.33;2.22;;;20.30;88.40;;;;;;5011728;28;20037;-73
2021/08/31 06:19:35;;;;;;;2.47;2.28;;;20.20;89.20;;;;;;5011876;28;20121;-72
2021/08/31 06:22:03;;;;;;;4.43;2.10;;;20.10;89.40;;;;;;5011754;28;20041;-72
2021/08/31 06:24:31;;;;;;;3.03;2.17;;;20.00;89.50;;;;;;5013205;28;20061;-73
2021/08/31 06:26:58;;;;;;;3.17;2.00;;;19.90;89.30;;;;;;5012973;28;20371;-73
2021/08/31 06:29:25;;;;;;;2.50;2.30;;;19.70;89.90;;;;;;5013094;28;20057;-73
2021/08/31 06:31:53;;;;;;;2.20;2.10;;;19.60;90.40;;;;;;5011332;28;20433;-71
2021/08/31 06:34:20;;;;;;;4.00;2.00;;;19.40;90.70;;;;;;5013069;28;20072;-72
2021/08/31 06:36:48;;;;;;;2.10;2.00;;;19.30;91.10;;;;;;5012967;28;20450;-72
2021/08/31 06:39:16;;;;;;;4.68;2.20;;;19.20;91.10;;;;;;5013041;28;20022;-72
2021/08/31 06:41:44;;;;;;;2.58;2.28;;;19.10;91.30;;;;;;5012885;28;20026;-72
2021/08/31 06:44:11;;;;;;;2.65;2.45;;;19.00;91.50;;;;;;5012852;28;20029;-72
2021/08/31 06:46:39;;;;;;;3.67;2.25;;;18.90;91.50;;;;;;5011636;28;20038;-73
2021/08/31 06:49:06;;;;;;;2.78;2.25;;;18.90;91.90;;;;;;5012898;28;20467;-72
2021/08/31 06:51:34;;;;;;;3.50;2.15;;;18.80;92.00;;;;;;5012980;28;20394;-72
2021/08/31 06:54:01;;;;;;;2.20;2.00;;;18.80;92.10;;;;;;5012866;28;20021;-72
2021/08/31 06:56:29;;;;;;;4.55;2.33;;;18.80;91.80;;;;;;5011481;28;20033;-72
2021/08/31 06:58:56;;;;;;;2.67;2.10;;;18.80;91.90;;;;;;5012798;28;20026;-74
2021/08/31 07:01:23;;;;;;;1.92;1.77;;;18.80;91.80;;;;;;5012652;28;20053;-72
2021/08/31 07:03:51;;;;;;;2.20;2.00;;;18.80;91.60;;;;;;5011442;28;20030;-72
2021/08/31 07:06:18;;;;;;;3.75;2.05;;;18.70;92.40;;;;;;5011036;28;20125;-73
2021/08/31 07:08:46;;;;;;;3.70;2.00;;;18.70;92.00;;;;;;5012808;28;20372;-73
2021/08/31 07:11:13;;;;;;;1.95;1.80;;;18.60;92.20;;;;;;5011421;28;20084;-74
2021/08/31 07:13:41;;;;;;;2.17;1.90;;;18.40;92.30;;;;;;5012706;28;20026;-72
2021/08/31 07:16:08;;;;;;;3.00;2.22;;;18.30;92.30;;;;;;5011344;28;20478;-72
2021/08/31 07:18:36;;;;;;;5.18;2.17;;;18.10;92.80;;;;;;5011233;28;20025;-72
2021/08/31 07:21:03;;;;;;;3.90;2.33;;;17.90;93.30;;;;;;5012735;28;20125;-71
2021/08/31 07:23:30;;;;;;;2.80;2.17;;;17.80;93.00;;;;;;5012369;28;20053;-72
2021/08/31 07:25:58;;;;;;;2.30;2.10;;;17.60;93.40;;;;;;5012438;28;20026;-72
2021/08/31 07:28:25;;;;;;;2.20;2.00;;;17.50;93.70;;;;;;5012614;28;20061;-72
2021/08/31 07:30:52;;;;;;;2.78;2.58;;;17.40;93.70;;;;;;5011331;28;20092;-72
2021/08/31 07:33:20;;;;;;;2.13;1.92;;;17.30;94.10;;;;;;5012394;28;20057;-74
2021/08/31 07:35:47;;;;;;;2.13;2.03;;;17.20;94.20;;;;;;5012421;28;20022;-72
2021/08/31 07:38:15;;;;;;;2.33;2.13;;;17.10;94.40;;;;;;5011116;28;20026;-71
2021/08/31 07:40:43;;;;;;;2.78;2.38;;;17.00;94.80;;;;;;5012204;28;20494;-72
2021/08/31 07:43:10;;;;;;;15.75;2.80;;;16.90;94.70;;;;;;5014471;28;20022;-72
2021/08/31 07:45:38;;;;;;;8.50;2.50;;;16.80;95.20;;;;;;5014744;28;20430;-72
2021/08/31 07:48:06;;;;;;;2.22;2.03;;;16.80;96.00;;;;;;5015830;28;20100;-73
2021/08/31 07:50:37;;;;;;;3.13;2.63;;;16.80;96.20;;;;;;5014755;28;20022;-71
2021/08/31 07:53:05;;;;;;;4.07;2.80;;;16.70;95.60;;;;;;5015914;28;20033;-71
2021/08/31 07:55:32;;;;;;;2.70;2.50;;;16.60;95.80;;;;;;5015835;28;20026;-71
2021/08/31 07:58:00;;;;;;;2.13;1.92;;;16.60;96.00;;;;;;5014402;28;20026;-72
2021/08/31 08:00:27;;;;;;;3.78;2.42;;;16.40;95.70;;;;;;5014576;28;20021;-71
2021/08/31 08:02:54;;;;;;;3.55;2.38;;;16.30;95.90;;;;;;5015561;28;20383;-71
2021/08/31 08:05:23;;;;;;;3.25;2.40;;;16.20;96.10;;;;;;5015323;28;20038;-71
2021/08/31 08:07:50;;;;;;;2.83;2.50;;;16.20;96.40;;;;;;5014148;28;20018;-71
2021/08/31 08:10:18;;;;;;;4.85;2.45;;;16.10;96.60;;;;;;5014088;28;20076;-71
2021/08/31 08:12:45;;;;;;;2.83;2.10;;;16.10;97.00;;;;;;5013911;28;20060;-72
2021/08/31 08:15:13;;;;;;;3.55;2.30;;;16.00;97.10;;;;;;5015261;28;20026;-71
2021/08/31 08:17:40;;;;;;;2.83;2.58;;;16.00;97.70;;;;;;5015182;28;20021;-70
2021/08/31 08:20:10;;;;;;;4.18;2.97;;;15.90;97.90;;;;;;5015244;28;20124;-73
2021/08/31 08:22:38;;;;;;;2.63;2.42;;;15.80;98.00;;;;;;5015205;28;20085;-72
2021/08/31 08:25:07;;;;;;;2.55;2.38;;;15.80;98.20;;;;;;5015108;28;20018;-73
2021/08/31 08:27:34;;;;;;;2.88;2.55;;;15.70;98.50;;;;;;5013817;28;20076;-73
2021/08/31 08:30:02;;;;;;;2.60;1.90;;;15.70;98.60;;;;;;5013803;28;20052;-73
2021/08/31 08:32:30;;;;;;;3.72;2.40;;;15.60;98.80;;;;;;4997282;28;20029;-72
2021/08/31 08:34:57;;;;;;;2.45;2.20;;;15.60;99.10;;;;;;5014919;28;20037;-72
2021/08/31 08:37:24;;;;;;;2.42;2.20;;;15.50;99.50;;;;;;5013697;28;20032;-73
2021/08/31 08:39:53;;;;;;;3.60;2.35;;;15.50;99.60;;;;;;5015240;28;20148;-72
2021/08/31 08:42:20;;;;;;;3.45;2.17;;;15.50;99.90;;;;;;5014632;28;20030;-73
2021/08/31 08:44:48;;;;;;;2.53;2.33;;;15.40;99.90;;;;;;5013318;28;20574;-74
2021/08/31 08:47:16;;;;;;;2.63;2.42;;;15.40;99.90;;;;;;5013538;28;20052;-72
2021/08/31 08:49:45;;;;;;;3.97;2.35;;;15.40;99.90;;;;;;5014519;28;20034;-73
2021/08/31 08:52:13;;;;;;;3.75;2.92;;;15.30;99.90;;;;;;5013169;28;20022;-71
2021/08/31 08:54:43;;;;;;;2.50;2.30;;;15.30;99.90;;;;;;5012587;28;20022;-72
2021/08/31 08:57:10;;;;;;;3.67;2.40;;;15.30;99.90;;;;;;5014529;28;20034;-73
2021/08/31 08:59:41;;;;;;;3.95;2.50;;;15.30;99.90;;;;;;5013113;28;20502;-72
2021/08/31 09:02:09;;;;;;;3.47;2.45;;;15.20;99.90;;;;;;5013123;28;20026;-72
2021/08/31 09:04:51;;;;;;;4.22;2.60;;;15.20;99.90;;;;;;5013088;28;20034;-73
2021/08/31 09:07:28;;;;;;;6.18;2.90;;;15.20;99.90;;;;;;5014405;28;20026;-73
2021/08/31 09:10:18;;;;;;;3.08;2.65;;;15.20;99.90;;;;;;5014727;28;20022;-73
2021/08/31 09:12:54;;;;;;;4.85;4.15;;;15.20;99.90;;;;;;5014402;28;20022;-73
2021/08/31 09:15:24;;;;;;;3.10;2.78;;;15.10;99.90;;;;;;5014250;28;20022;-74
2021/08/31 09:18:12;;;;;;;3.83;3.00;;;15.10;99.90;;;;;;5012894;28;20022;-73
2021/08/31 09:21:03;;;;;;;3.10;2.58;;;15.00;99.90;;;;;;5014152;28;20334;-73
2021/08/31 09:23:34;;;;;;;5.30;2.55;;;15.00;99.90;;;;;;5013979;28;20046;-72
2021/08/31 09:26:08;;;;;;;4.28;2.50;;;15.00;99.90;;;;;;5014081;28;20026;-72
2021/08/31 09:28:44;;;;;;;2.97;2.60;;;14.90;99.90;;;;;;5012589;28;20116;-72
2021/08/31 09:31:14;;;;;;;3.72;2.50;;;14.90;99.90;;;;;;5012585;28;20033;-72
2021/08/31 09:33:44;;;;;;;3.33;2.93;;;14.80;99.90;;;;;;5013781;28;20026;-73
2021/08/31 09:36:14;;;;;;;2.70;2.50;;;14.80;99.90;;;;;;5013925;28;20030;-70
2021/08/31 09:38:53;;;;;;;3.65;2.90;;;14.70;99.90;;;;;;5013824;28;20026;-73
2021/08/31 09:41:44;;;;;;;3.53;3.00;;;14.70;99.90;;;;;;5012575;28;20047;-70
2021/08/31 09:44:13;;;;;;;4.50;2.47;;;14.60;99.90;;;;;;5013475;28;20018;-71
2021/08/31 09:46:57;;;;;;;3.33;2.55;;;14.60;99.90;;;;;;5012342;28;20422;-72
2021/08/31 09:49:28;;;;;;;3.65;2.60;;;14.60;99.90;;;;;;5013689;28;20156;-70
2021/08/31 09:52:09;;;;;;;3.17;2.90;;;14.50;99.90;;;;;;5012329;28;20486;-72
2021/08/31 09:54:48;;;;;;;4.80;3.13;;;14.40;99.90;;;;;;5013645;28;20026;-71
2021/08/31 09:57:34;;;;;;;6.18;3.47;;;14.40;99.90;;;;;;5013443;28;20038;-72
2021/08/31 10:00:17;;;;;;;3.88;3.53;;;14.30;99.90;;;;;;5013365;28;20506;-71
2021/08/31 10:02:48;;;;;;;5.68;3.20;;;14.30;99.90;;;;;;5012018;28;20022;-71
2021/08/31 10:05:15;;;;;;;5.07;3.10;;;14.20;99.90;;;;;;4994644;28;20069;-70
2021/08/31 10:07:45;;;;;;;4.05;3.55;;;14.10;99.90;;;;;;5013175;28;20060;-71
2021/08/31 10:10:16;;;;;;;4.93;3.60;;;14.10;99.90;;;;;;5013086;28;20049;-72
2021/08/31 10:12:46;;;;;;;5.45;4.15;;;14.00;99.90;;;;;;5011792;28;20025;-73
2021/08/31 10:15:15;;;;;;;;;;;14.00;99.90;;;;;;5012434;28;20064;-71
2021/08/31 10:17:46;;;;;;;4.70;3.50;;;14.00;99.90;;;;;;5013617;28;19909;-73
2021/08/31 10:20:18;;;;;;;6.25;4.05;;;14.00;99.90;;;;;;5013421;28;20022;-72
2021/08/31 10:22:46;;;;;;;4.25;3.85;;;13.90;99.90;;;;;;5013633;28;20041;-73
2021/08/31 10:25:13;;;;;;;6.15;4.05;;;13.90;99.90;;;;;;5012152;28;20021;-72
2021/08/31 10:27:44;;;;;;;6.40;3.80;;;13.80;99.90;;;;;;5012135;28;20029;-73
2021/08/31 10:30:14;;;;;;;;;;;13.80;99.90;;;;;;5012696;28;20026;-73
2021/08/31 10:32:43;;;;;;;4.32;3.40;;;13.80;99.90;;;;;;5011710;28;19941;-72
2021/08/31 10:35:35;;;;;;;4.70;3.65;;;13.80;99.90;;;;;;5011921;28;20030;-72
2021/08/31 10:38:11;;;;;;;4.93;4.05;;;13.70;99.90;;;;;;5009638;28;20030;-71
2021/08/31 10:40:39;;;;;;;3.65;3.35;;;13.70;99.90;;;;;;5013016;28;20026;-72
2021/08/31 10:43:12;;;;;;;4.90;3.80;;;13.50;99.90;;;;;;5012146;28;20030;-72
2021/08/31 10:45:44;;;;;;;4.68;3.70;;;13.50;99.90;;;;;;5012238;28;20026;-73
2021/08/31 10:48:23;;;;;;;4.00;3.40;;;13.40;99.90;;;;;;5012942;28;20022;-73
2021/08/31 10:51:03;;;;;;;6.20;3.65;;;13.30;99.90;;;;;;5011789;28;20419;-75
2021/08/31 10:53:45;;;;;;;5.85;3.80;;;13.20;99.90;;;;;;5011591;28;20026;-72
2021/08/31 10:56:22;;;;;;;4.60;3.80;;;13.20;99.90;;;;;;5012999;28;20061;-73
2021/08/31 10:58:53;;;;;;;4.35;3.90;;;13.20;99.90;;;;;;5012984;28;20025;-72
2021/08/31 11:01:23;;;;;;;5.88;3.97;;;13.10;99.90;;;;;;5011870;28;20386;-72
2021/08/31 11:03:53;;;;;;;4.63;4.07;;;13.10;99.90;;;;;;5012492;28;20362;-73
2021/08/31 11:06:27;;;;;;;;;;;13.00;99.90;;;;;;5013319;28;20128;-72
2021/08/31 11:09:16;;;;;;;5.10;3.97;;;13.10;99.90;;;;;;5011872;28;20222;-72
2021/08/31 11:11:51;;;;;;;4.13;3.83;;;13.00;99.90;;;;;;5013126;28;20072;-74
2021/08/31 11:14:49;;;;;;;5.25;4.00;;;13.10;99.90;;;;;;5013415;28;20033;-72
2021/08/31 11:17:50;;;;;;;4.22;3.83;;;13.00;99.90;;;;;;5013881;28;20475;-72
2021/08/31 11:20:31;;;;;;;4.35;3.95;;;13.00;99.90;;;;;;4994416;28;20076;-72
2021/08/31 11:23:08;;;;;;;4.05;3.65;;;13.00;99.90;;;;;;5016415;28;20067;-73
2021/08/31 11:25:38;;;;;;;4.70;4.30;;;13.00;99.90;;;;;;5015208;28;20339;-73
2021/08/31 11:28:16;;;;;;;4.68;4.28;;;13.00;99.90;;;;;;5015275;28;20030;-73
2021/08/31 11:30:58;;;;;;;6.00;4.55;;;12.90;99.90;;;;;;5015239;28;20054;-72
2021/08/31 11:33:30;;;;;;;4.40;4.00;;;12.90;99.90;;;;;;5015176;28;20022;-72
2021/08/31 11:36:23;;;;;;;4.25;3.85;;;12.90;99.90;;;;;;5015182;28;20363;-73
2021/08/31 11:38:53;;;;;;;3.95;3.65;;;12.90;99.90;;;;;;5015029;28;20470;-74
2021/08/31 11:41:34;;;;;;;5.07;4.47;;;12.90;99.90;;;;;;5015280;28;20509;-72
2021/08/31 11:44:21;;;;;;;5.45;4.70;;;12.80;99.90;;;;;;5016375;28;20034;-73
2021/08/31 11:46:51;;;;;;;5.00;4.28;;;12.80;99.90;;;;;;5016235;28;20370;-73
2021/08/31 11:49:22;;;;;;;5.28;4.78;;;12.80;99.90;;;;;;5014893;28;20080;-73
2021/08/31 11:51:55;;;;;;;4.55;4.20;;;12.80;99.90;;;;;;5015428;28;20037;-73
2021/08/31 11:54:24;;;;;;;4.45;4.03;;;12.70;99.90;;;;;;5016198;28;20475;-73
2021/08/31 11:56:56;;;;;;;4.70;4.30;;;12.70;99.90;;;;;;5014761;28;20121;-73
2021/08/31 11:59:42;;;;;;;5.45;4.90;;;12.70;99.90;;;;;;5016125;28;20022;-72
2021/08/31 12:02:11;;;;;;;4.72;4.30;;;12.70;99.90;;;;;;5016037;28;20029;-72
2021/08/31 12:04:39;;;;;;;4.45;4.05;;;12.70;99.90;;;;;;5014296;28;20069;-73
2021/08/31 12:07:09;;;;;;;4.78;4.35;;;12.60;99.90;;;;;;5015915;28;20069;-73
2021/08/31 12:09:42;;;;;;;5.15;4.30;;;12.60;99.90;;;;;;5015925;28;20024;-72
2021/08/31 12:12:11;;;;;;;4.60;4.30;;;12.60;99.90;;;;;;5014712;28;20037;-72
2021/08/31 12:14:40;;;;;;;5.13;4.43;;;12.60;99.90;;;;;;5015628;28;20040;-72
2021/08/31 12:17:09;;;;;;;5.10;4.60;;;12.60;99.90;;;;;;5014612;28;20486;-72
2021/08/31 12:19:38;;;;;;;4.78;4.00;;;12.60;99.90;;;;;;5014426;28;20029;-72
2021/08/31 12:22:11;;;;;;;4.25;3.90;;;12.50;99.90;;;;;;5015746;28;20113;-72
2021/08/31 12:24:44;;;;;;;5.20;4.70;;;12.50;99.90;;;;;;5015890;28;20465;-72
2021/08/31 12:27:16;;;;;;;5.25;4.75;;;12.50;99.90;;;;;;5014312;28;20076;-72
2021/08/31 12:29:55;;;;;;;5.10;4.60;;;12.60;99.90;;;;;;5013415;28;20398;-72
2021/08/31 12:32:31;;;;;;;4.57;4.15;;;12.40;99.90;;;;;;5015456;28;20053;-72
2021/08/31 12:35:23;;;;;;;5.57;4.25;;;12.40;99.90;;;;;;5014267;28;20084;-73
2021/08/31 12:38:12;;;;;;;5.00;4.55;;;12.30;99.90;;;;;;5015426;28;20064;-72
2021/08/31 12:40:57;;;;;;;7.25;4.57;;;12.30;99.90;;;;;;5007672;28;20108;-72
2021/08/31 12:43:30;;;;;;;4.35;4.00;;;12.20;99.90;;;;;;5015265;28;20434;-73
2021/08/31 12:46:00;;;;;;;5.07;4.30;;;12.20;99.90;;;;;;5015317;28;20048;-73
2021/08/31 12:48:46;;;;;;;4.95;4.55;;;12.20;99.90;;;;;;5015358;28;20113;-72
2021/08/31 12:51:14;;;;;;;4.70;4.30;;;12.20;99.90;;;;;;5015201;28;20108;-72
2021/08/31 12:53:46;;;;;;;4.75;4.28;;;12.10;99.90;;;;;;5015186;28;20022;-73
2021/08/31 12:56:15;;;;;;;5.30;4.90;;;12.00;99.90;;;;;;5014933;28;20022;-73
2021/08/31 12:58:46;;;;;;;5.43;4.93;;;12.00;99.90;;;;;;5015063;28;20032;-73
2021/08/31 13:01:19;;;;;;;;;;;11.90;99.90;;;;;;5015560;28;20025;-73
2021/08/31 13:03:59;;;;;;;5.25;4.80;;;11.90;99.90;;;;;;5013534;28;19905;-73